Time;durP1;ratioP1;P1;durP2;ratioP2;P2;SDS_P1;SDS_P2;PMS_P1;PMS_P2;Temp;Humidity;BMP_temperature;BMP_pressure;BME280_temperature;BME280_humidity;BME280_pressure;Samples;Min_cycle;Max_cycle;Signal;HPM_P1;HPM_P2
2023/09/27 06:52:32;;;;;;;5.03;1.80;;;15.20;99.90;;;;;;5037001;28;20586;-74
2023/09/27 06:54:59;;;;;;;3.10;1.80;;;15.80;99.90;;;;;;5034785;28;20266;-73
2023/09/27 06:57:26;;;;;;;4.90;2.00;;;15.80;99.90;;;;;;5037993;28;20204;-72
2023/09/27 06:59:53;;;;;;;3.63;1.83;;;15.70;99.90;;;;;;5041321;28;20294;-72
2023/09/27 07:02:21;;;;;;;2.63;1.60;;;15.80;99.90;;;;;;5032226;28;20286;-72
2023/09/27 07:04:47;;;;;;;3.93;1.70;;;15.90;99.90;;;;;;5034826;28;20207;-72
2023/09/27 07:07:14;;;;;;;5.30;3.27;;;16.30;99.90;;;;;;5031657;28;20296;-73
2023/09/27 07:09:43;;;;;;;2.88;1.60;;;17.00;99.90;;;;;;5034999;28;20300;-72
2023/09/27 07:12:09;;;;;;;3.33;1.63;;;17.80;99.90;;;;;;5032198;28;20267;-73
2023/09/27 07:14:37;;;;;;;2.10;1.70;;;18.60;99.90;;;;;;5044315;28;20236;-73
2023/09/27 07:17:06;;;;;;;4.40;1.80;;;19.20;99.90;;;;;;5034013;28;20207;-72
2023/09/27 07:19:34;;;;;;;4.40;1.98;;;19.90;99.90;;;;;;5041832;28;20564;-73
2023/09/27 07:22:04;;;;;;;2.45;1.30;;;20.30;99.90;;;;;;5028699;28;20232;-73
2023/09/27 07:24:31;;;;;;;6.13;1.48;;;20.60;99.90;;;;;;5038556;28;20209;-72
2023/09/27 07:26:59;;;;;;;2.00;1.40;;;20.90;99.90;;;;;;5027181;28;20206;-74
2023/09/27 07:29:27;;;;;;;2.00;1.40;;;21.20;99.90;;;;;;5040781;28;20292;-73
2023/09/27 07:31:54;;;;;;;3.13;1.38;;;21.30;99.90;;;;;;5036477;28;20313;-73
2023/09/27 07:34:21;;;;;;;3.13;1.60;;;21.40;99.90;;;;;;5040176;28;20207;-73
2023/09/27 07:36:48;;;;;;;2.53;1.70;;;21.60;99.90;;;;;;5037588;28;20205;-73
2023/09/27 07:39:16;;;;;;;2.00;1.40;;;21.80;99.90;;;;;;5036762;28;20228;-73
2023/09/27 07:41:44;;;;;;;4.40;1.90;;;21.70;99.90;;;;;;5037971;28;20240;-73
2023/09/27 07:44:12;;;;;;;3.22;1.70;;;21.80;99.90;;;;;;5037493;28;20569;-73
2023/09/27 07:46:39;;;;;;;2.70;1.67;;;21.80;99.90;;;;;;5040297;28;20209;-73
2023/09/27 07:49:06;;;;;;;3.13;1.52;;;21.60;99.90;;;;;;5038359;28;20325;-73
2023/09/27 07:51:33;;;;;;;5.00;1.70;;;22.00;99.90;;;;;;5035912;28;20240;-73
2023/09/27 07:54:02;;;;;;;5.03;1.80;;;22.10;99.90;;;;;;5020319;28;20259;-73
2023/09/27 07:56:36;;;;;;;2.55;1.80;;;22.50;99.90;;;;;;5023711;28;20202;-73
2023/09/27 07:59:05;;;;;;;3.28;2.10;;;23.10;99.90;;;;;;5022925;28;20205;-73
2023/09/27 08:01:33;;;;;;;3.45;1.55;;;23.70;99.90;;;;;;5023612;28;20241;-73
2023/09/27 08:04:05;;;;;;;4.00;2.00;;;24.30;99.90;;;;;;5012901;28;20206;-73
2023/09/27 08:06:34;;;;;;;3.15;1.85;;;24.60;99.90;;;;;;5024438;28;20216;-73
2023/09/27 08:09:01;;;;;;;5.90;1.77;;;24.80;99.90;;;;;;5022503;28;20649;-72
2023/09/27 08:11:28;;;;;;;3.13;1.90;;;24.70;99.90;;;;;;5027478;28;20237;-72
2023/09/27 08:13:55;;;;;;;4.63;1.90;;;24.50;99.90;;;;;;5021383;28;20317;-73
2023/09/27 08:16:21;;;;;;;3.00;1.70;;;24.20;99.90;;;;;;5023969;28;20213;-72
2023/09/27 08:18:50;;;;;;;2.58;1.50;;;24.40;99.90;;;;;;5021766;28;20231;-72
2023/09/27 08:21:17;;;;;;;4.25;1.77;;;24.60;99.90;;;;;;5024503;28;20260;-73
2023/09/27 08:23:44;;;;;;;2.92;1.77;;;24.00;99.90;;;;;;5016424;28;20292;-72
2023/09/27 08:26:12;;;;;;;1.90;1.33;;;23.50;99.90;;;;;;5021666;28;20201;-72
2023/09/27 08:28:40;;;;;;;6.05;1.40;;;23.60;99.90;;;;;;5031230;28;20572;-72
2023/09/27 08:31:07;;;;;;;2.25;1.33;;;23.70;99.90;;;;;;5030503;28;20220;-73
2023/09/27 08:33:34;;;;;;;3.72;1.90;;;23.80;99.90;;;;;;5031124;28;20625;-72
2023/09/27 08:36:02;;;;;;;3.28;1.67;;;24.10;99.90;;;;;;5031335;28;20292;-72
2023/09/27 08:38:30;;;;;;;5.32;1.80;;;24.40;99.90;;;;;;5031294;28;20232;-72
2023/09/27 08:40:57;;;;;;;4.43;1.73;;;24.20;99.90;;;;;;5031686;28;20233;-72
2023/09/27 08:43:26;;;;;;;1.92;1.30;;;24.20;99.90;;;;;;5031727;28;20734;-72
2023/09/27 08:45:53;;;;;;;2.60;1.42;;;24.20;99.90;;;;;;5031277;28;20207;-72
2023/09/27 08:48:22;;;;;;;3.40;1.98;;;24.40;99.90;;;;;;5031490;28;20217;-72
2023/09/27 08:50:50;;;;;;;2.40;1.60;;;24.40;99.90;;;;;;5031452;28;20234;-72
2023/09/27 08:53:18;;;;;;;3.45;1.88;;;24.00;99.90;;;;;;5031222;28;20225;-72
2023/09/27 08:55:49;;;;;;;2.05;1.40;;;23.80;99.90;;;;;;5031176;28;20205;-72
2023/09/27 08:58:16;;;;;;;5.20;1.50;;;23.50;99.90;;;;;;5031381;28;20236;-72
2023/09/27 09:00:43;;;;;;;2.88;1.45;;;23.30;99.90;;;;;;5031053;28;20657;-72
2023/09/27 09:03:11;;;;;;;3.83;1.40;;;22.70;99.90;;;;;;5030241;28;20657;-72
2023/09/27 09:05:40;;;;;;;2.53;1.50;;;22.30;99.90;;;;;;5030700;28;20300;-73
2023/09/27 09:08:09;;;;;;;1.92;1.17;;;22.20;99.90;;;;;;5031165;28;20212;-72
2023/09/27 09:10:37;;;;;;;2.40;1.52;;;22.40;99.90;;;;;;5031431;28;20548;-72
2023/09/27 09:13:05;;;;;;;4.18;1.60;;;22.60;99.90;;;;;;5030928;28;20225;-73
2023/09/27 09:15:35;;;;;;;1.85;1.15;;;22.10;99.90;;;;;;5031174;28;20291;-72
2023/09/27 09:18:06;;;;;;;4.28;1.83;;;21.80;99.90;;;;;;5031058;28;20204;-73
2023/09/27 09:20:49;;;;;;;2.03;1.60;;;21.60;99.90;;;;;;5031218;28;20212;-72
2023/09/27 09:23:31;;;;;;;2.50;1.52;;;21.50;99.90;;;;;;5030774;28;20225;-72
2023/09/27 09:25:59;;;;;;;3.22;1.48;;;21.40;99.90;;;;;;5028741;27;20209;-72
2023/09/27 09:28:26;;;;;;;3.35;1.77;;;21.50;99.90;;;;;;5030973;28;20291;-72
2023/09/27 09:30:54;;;;;;;3.78;1.50;;;21.70;99.90;;;;;;5030925;28;20719;-72
2023/09/27 09:33:22;;;;;;;2.25;1.40;;;21.90;99.90;;;;;;5030265;28;20225;-72
2023/09/27 09:35:50;;;;;;;3.05;1.73;;;22.20;99.90;;;;;;5030740;28;20201;-72
2023/09/27 09:38:25;;;;;;;3.38;1.60;;;22.10;99.90;;;;;;5031005;28;20656;-72
2023/09/27 09:40:53;;;;;;;2.67;1.60;;;22.10;99.90;;;;;;5030836;28;20696;-72
2023/09/27 09:43:34;;;;;;;3.95;1.60;;;22.10;99.90;;;;;;5030868;28;20225;-73
2023/09/27 09:46:03;;;;;;;2.88;1.60;;;22.30;99.90;;;;;;5030421;28;20206;-72
2023/09/27 09:48:31;;;;;;;2.33;1.52;;;22.30;99.90;;;;;;5030848;28;20205;-72
2023/09/27 09:51:03;;;;;;;2.92;1.65;;;22.10;99.90;;;;;;5030570;28;20252;-73
2023/09/27 09:53:30;;;;;;;4.18;1.70;;;22.00;99.90;;;;;;5030221;28;20260;-72
2023/09/27 09:56:00;;;;;;;2.13;1.30;;;22.00;99.90;;;;;;5030515;28;20240;-73
2023/09/27 09:58:34;;;;;;;2.55;1.20;;;22.30;99.90;;;;;;5030658;28;20247;-73
2023/09/27 10:01:03;;;;;;;3.30;1.45;;;22.60;99.90;;;;;;5030669;28;20220;-73
2023/09/27 10:03:33;;;;;;;2.15;1.52;;;22.60;99.90;;;;;;5030671;28;20260;-72
2023/09/27 10:06:01;;;;;;;2.17;1.45;;;22.60;99.90;;;;;;5030397;28;20209;-73
2023/09/27 10:08:33;;;;;;;4.90;1.50;;;22.50;99.90;;;;;;5030845;28;20209;-73
2023/09/27 10:11:03;;;;;;;3.00;1.40;;;22.50;99.90;;;;;;5030530;28;20237;-74
2023/09/27 10:13:33;;;;;;;2.72;1.23;;;22.60;99.90;;;;;;5030527;28;20227;-73
2023/09/27 10:16:01;;;;;;;2.13;1.30;;;22.80;99.90;;;;;;5029796;28;20251;-73
2023/09/27 10:18:37;;;;;;;4.63;1.42;;;23.10;99.90;;;;;;5030123;28;20313;-73
2023/09/27 10:21:09;;;;;;;2.50;1.42;;;23.30;99.90;;;;;;5030009;28;20263;-73
2023/09/27 10:23:58;;;;;;;4.13;1.42;;;23.60;99.90;;;;;;5030143;28;20258;-73
2023/09/27 10:26:36;;;;;;;3.78;1.50;;;23.50;99.90;;;;;;5029347;28;20213;-73
2023/09/27 10:29:15;;;;;;;1.95;1.27;;;23.60;99.90;;;;;;5029874;28;20208;-73
2023/09/27 10:32:21;;;;;;;2.60;1.05;;;23.50;99.90;;;;;;5008037;28;20781;-74
2023/09/27 10:34:49;;;;;;;3.63;1.30;;;23.50;99.90;;;;;;5009620;28;20236;-74
2023/09/27 10:37:17;;;;;;;2.85;1.48;;;23.50;99.90;;;;;;5010229;28;20233;-74
2023/09/27 10:40:22;;;;;;;3.95;1.20;;;23.80;99.90;;;;;;5010408;28;20212;-74
2023/09/27 10:42:49;;;;;;;1.58;0.88;;;23.50;99.90;;;;;;4995080;28;20260;-74
2023/09/27 10:45:18;;;;;;;3.58;1.40;;;23.60;99.90;;;;;;5010303;28;20257;-73
2023/09/27 10:47:46;;;;;;;2.38;1.30;;;23.60;99.90;;;;;;5009979;28;20304;-74
2023/09/27 10:50:13;;;;;;;2.03;1.08;;;23.50;99.90;;;;;;5009810;28;20220;-74
2023/09/27 10:52:40;;;;;;;2.50;1.45;;;23.30;99.90;;;;;;5010054;28;20225;-74
2023/09/27 10:55:12;;;;;;;1.98;1.30;;;23.20;99.90;;;;;;5010240;28;20648;-74
2023/09/27 10:57:41;;;;;;;2.47;1.17;;;23.10;99.90;;;;;;5010170;28;20233;-73
2023/09/27 11:00:11;;;;;;;2.38;1.50;;;23.20;99.90;;;;;;5010155;28;20210;-74
2023/09/27 11:02:41;;;;;;;2.60;1.50;;;23.10;99.90;;;;;;5009701;28;20782;-73
2023/09/27 11:05:08;;;;;;;1.42;1.02;;;23.20;99.90;;;;;;5009721;28;20237;-74
2023/09/27 11:07:45;;;;;;;1.90;1.17;;;23.40;99.90;;;;;;5010043;28;20210;-74
2023/09/27 11:10:18;;;;;;;1.90;1.10;;;23.30;99.90;;;;;;5009790;28;20201;-74
2023/09/27 11:12:45;;;;;;;2.38;1.10;;;23.20;99.90;;;;;;5009334;28;20233;-73
2023/09/27 11:15:12;;;;;;;2.30;1.40;;;23.30;99.90;;;;;;5009654;28;20212;-74
2023/09/27 11:17:40;;;;;;;2.05;1.10;;;23.40;99.90;;;;;;5009430;28;20213;-74
2023/09/27 11:20:11;;;;;;;5.03;1.30;;;23.70;99.90;;;;;;5009865;28;20206;-74
2023/09/27 11:22:38;;;;;;;2.08;0.90;;;23.50;99.90;;;;;;5009639;28;20602;-73
2023/09/27 11:25:26;;;;;;;3.30;1.58;;;23.40;99.90;;;;;;5009738;28;20274;-74
2023/09/27 11:27:53;;;;;;;1.65;1.20;;;23.60;99.90;;;;;;5011216;28;20216;-73
2023/09/27 11:30:25;;;;;;;3.25;1.38;;;23.70;99.90;;;;;;5012991;28;20301;-74
2023/09/27 11:32:53;;;;;;;1.70;1.20;;;23.70;99.90;;;;;;5012654;28;20236;-74
2023/09/27 11:35:20;;;;;;;1.85;1.00;;;23.60;99.90;;;;;;5013194;28;20256;-74
2023/09/27 11:37:48;;;;;;;2.25;1.20;;;23.90;99.90;;;;;;5013119;28;20472;-73
2023/09/27 11:40:15;;;;;;;2.80;1.20;;;23.90;99.90;;;;;;5012987;28;20205;-73
2023/09/27 11:42:49;;;;;;;2.40;1.23;;;23.90;99.90;;;;;;5012501;28;20238;-74
2023/09/27 11:45:16;;;;;;;1.67;0.95;;;23.90;99.90;;;;;;5013044;28;20202;-74
2023/09/27 11:47:47;;;;;;;2.60;1.52;;;23.80;99.90;;;;;;5013018;28;20237;-74
2023/09/27 11:50:16;;;;;;;1.73;1.08;;;23.90;99.90;;;;;;5012535;28;20684;-75
2023/09/27 11:52:44;;;;;;;1.70;1.13;;;23.90;99.90;;;;;;5012808;28;20344;-73
2023/09/27 11:55:11;;;;;;;1.73;1.10;;;23.90;99.90;;;;;;5012531;28;20626;-74
2023/09/27 11:57:38;;;;;;;1.75;1.13;;;24.00;99.90;;;;;;5012545;28;20733;-74
2023/09/27 12:00:08;;;;;;;4.18;1.38;;;24.10;99.90;;;;;;5012617;28;20293;-74
2023/09/27 12:02:35;;;;;;;3.65;1.35;;;24.10;99.90;;;;;;5011961;28;20644;-74
2023/09/27 12:05:04;;;;;;;3.22;1.30;;;24.00;99.90;;;;;;5012091;28;20627;-74
2023/09/27 12:07:33;;;;;;;3.72;1.40;;;23.90;99.90;;;;;;5012185;28;20214;-74
2023/09/27 12:10:00;;;;;;;3.05;1.10;;;23.80;99.90;;;;;;5012461;28;20206;-73
2023/09/27 12:12:28;;;;;;;2.38;1.58;;;23.80;99.90;;;;;;5012141;28;20222;-74
2023/09/27 12:14:55;;;;;;;2.20;1.13;;;23.80;99.90;;;;;;5011991;28;20736;-73
2023/09/27 12:17:22;;;;;;;4.40;1.55;;;23.80;99.90;;;;;;5012060;28;20237;-74
2023/09/27 12:19:49;;;;;;;1.70;1.10;;;23.90;99.90;;;;;;5012121;28;20365;-74
2023/09/27 12:22:16;;;;;;;3.22;1.20;;;23.90;99.90;;;;;;5011599;28;20654;-73
2023/09/27 12:24:45;;;;;;;1.75;1.27;;;24.00;99.90;;;;;;5012034;28;20292;-74
2023/09/27 12:27:11;;;;;;;1.60;1.10;;;24.20;99.90;;;;;;5012102;28;20725;-73
2023/09/27 12:29:38;;;;;;;5.10;1.45;;;24.20;99.90;;;;;;5012268;28;20636;-74
2023/09/27 12:32:05;;;;;;;1.88;1.17;;;24.30;99.90;;;;;;5011827;28;20265;-74
2023/09/27 12:34:32;;;;;;;2.50;1.30;;;24.30;99.90;;;;;;5011702;28;20242;-73
2023/09/27 12:36:59;;;;;;;2.75;1.38;;;24.30;99.90;;;;;;5011866;28;20244;-73
2023/09/27 12:39:26;;;;;;;2.13;1.10;;;24.50;99.90;;;;;;5012005;28;20289;-74
2023/09/27 12:41:57;;;;;;;2.83;1.20;;;24.60;99.90;;;;;;5012710;28;20269;-74
2023/09/27 12:44:24;;;;;;;1.55;1.08;;;24.60;99.90;;;;;;5012051;28;20658;-74
2023/09/27 12:46:51;;;;;;;3.15;1.17;;;24.70;99.90;;;;;;5011878;28;20620;-73
2023/09/27 12:49:18;;;;;;;1.80;1.20;;;24.70;99.90;;;;;;5011824;28;20233;-74
2023/09/27 12:51:45;;;;;;;2.40;1.30;;;24.70;99.90;;;;;;5011614;28;20731;-74
2023/09/27 12:54:13;;;;;;;2.85;1.15;;;24.80;99.90;;;;;;5011779;28;20624;-74
2023/09/27 12:56:40;;;;;;;3.28;1.40;;;24.80;99.90;;;;;;5011593;28;20222;-73
2023/09/27 12:59:08;;;;;;;3.58;1.55;;;24.80;99.90;;;;;;5011745;28;20217;-73
2023/09/27 13:01:35;;;;;;;3.05;1.90;;;24.90;99.90;;;;;;5011303;28;20205;-74
2023/09/27 13:04:02;;;;;;;2.78;1.50;;;25.10;99.90;;;;;;5011122;28;20301;-74
2023/09/27 13:06:30;;;;;;;2.63;1.35;;;25.20;99.90;;;;;;5011865;28;20206;-73
2023/09/27 13:08:57;;;;;;;1.80;1.20;;;25.20;99.90;;;;;;5011427;28;20210;-74
2023/09/27 13:11:24;;;;;;;2.75;1.40;;;25.20;99.90;;;;;;5011414;28;20301;-74
2023/09/27 13:13:51;;;;;;;2.85;1.55;;;25.30;99.90;;;;;;5011298;28;20301;-73
2023/09/27 13:16:19;;;;;;;2.47;1.17;;;25.30;99.90;;;;;;5011074;28;20681;-73
2023/09/27 13:18:47;;;;;;;4.28;1.15;;;25.30;99.90;;;;;;5011365;28;20206;-73
2023/09/27 13:21:14;;;;;;;2.42;1.25;;;25.40;99.90;;;;;;5011177;28;20689;-73
2023/09/27 13:23:42;;;;;;;2.55;1.10;;;25.40;99.90;;;;;;5011136;28;20700;-74
2023/09/27 13:26:09;;;;;;;2.78;1.25;;;25.40;99.90;;;;;;5011159;28;20202;-73
2023/09/27 13:28:36;;;;;;;2.10;1.27;;;25.50;99.90;;;;;;5011016;28;20301;-74
2023/09/27 13:31:03;;;;;;;1.98;1.10;;;25.70;99.90;;;;;;5010839;28;20241;-74
2023/09/27 13:33:32;;;;;;;1.90;1.10;;;25.70;99.90;;;;;;5011167;28;20226;-74
2023/09/27 13:35:59;;;;;;;1.80;1.08;;;25.70;99.90;;;;;;5011341;28;20292;-73
2023/09/27 13:38:27;;;;;;;2.22;1.20;;;25.60;99.90;;;;;;5010959;28;20212;-74
2023/09/27 13:40:54;;;;;;;2.25;1.13;;;25.60;99.90;;;;;;5010951;28;20213;-74
2023/09/27 13:43:21;;;;;;;2.85;0.90;;;25.70;99.90;;;;;;5010747;28;20328;-74
2023/09/27 13:45:48;;;;;;;2.10;1.10;;;25.80;99.90;;;;;;5010857;28;20637;-74
2023/09/27 13:48:15;;;;;;;2.00;0.98;;;26.00;99.90;;;;;;5010784;28;20292;-74
2023/09/27 13:50:43;;;;;;;2.25;1.23;;;26.00;99.90;;;;;;5010112;28;20303;-74
2023/09/27 13:53:11;;;;;;;2.80;1.27;;;26.10;99.90;;;;;;5010767;28;20764;-74
2023/09/27 13:55:38;;;;;;;2.38;1.20;;;26.40;99.90;;;;;;5010780;28;20205;-74
2023/09/27 13:58:04;;;;;;;1.88;1.10;;;26.40;99.90;;;;;;5010862;28;20528;-74
2023/09/27 14:00:31;;;;;;;2.42;1.02;;;26.50;99.90;;;;;;5010714;28;20292;-73
2023/09/27 14:02:58;;;;;;;2.75;1.40;;;26.40;99.90;;;;;;5010247;28;20286;-74
2023/09/27 14:05:25;;;;;;;2.90;1.20;;;26.20;99.90;;;;;;5010708;28;20635;-74
2023/09/27 14:07:53;;;;;;;3.13;1.40;;;25.90;99.90;;;;;;5010633;28;20690;-74
2023/09/27 14:10:21;;;;;;;2.67;1.17;;;26.00;99.90;;;;;;5010523;28;20202;-74
2023/09/27 14:12:50;;;;;;;2.00;1.20;;;26.10;99.90;;;;;;5010404;28;20228;-74
2023/09/27 14:15:17;;;;;;;2.03;1.20;;;26.30;99.90;;;;;;5010335;28;20213;-74
2023/09/27 14:17:44;;;;;;;1.67;1.08;;;26.30;99.90;;;;;;5010558;28;20214;-74
2023/09/27 14:20:14;;;;;;;2.17;1.20;;;26.20;99.90;;;;;;5010476;28;20205;-74
2023/09/27 14:22:42;;;;;;;2.05;1.10;;;26.20;99.90;;;;;;5010379;28;20415;-74
2023/09/27 14:25:10;;;;;;;4.22;1.20;;;26.10;99.90;;;;;;5010229;28;20212;-74
2023/09/27 14:27:37;;;;;;;2.08;1.15;;;26.20;99.90;;;;;;5010237;28;20300;-74
2023/09/27 14:30:06;;;;;;;2.03;1.25;;;26.20;99.90;;;;;;5010525;28;20202;-73
2023/09/27 14:32:33;;;;;;;3.97;1.27;;;26.30;99.90;;;;;;5010210;28;20306;-74
2023/09/27 14:35:00;;;;;;;3.10;1.48;;;26.20;99.90;;;;;;5010514;28;20209;-74
2023/09/27 14:37:27;;;;;;;2.28;1.33;;;26.10;99.90;;;;;;5010148;28;20218;-74
2023/09/27 14:39:54;;;;;;;2.90;1.30;;;26.00;99.90;;;;;;5010390;28;20250;-74
2023/09/27 14:42:23;;;;;;;2.13;1.27;;;25.90;99.90;;;;;;5009953;28;20312;-74
2023/09/27 14:44:50;;;;;;;1.83;1.30;;;25.90;99.90;;;;;;5010308;28;20238;-74
2023/09/27 14:47:17;;;;;;;2.25;1.40;;;26.00;99.90;;;;;;5010045;28;20300;-74
2023/09/27 14:49:44;;;;;;;1.90;1.25;;;26.10;99.90;;;;;;5010122;28;20247;-74
2023/09/27 14:52:11;;;;;;;2.42;1.40;;;26.00;99.90;;;;;;5009725;28;20272;-74
2023/09/27 14:54:38;;;;;;;1.70;1.08;;;25.90;99.90;;;;;;5010308;28;20241;-74
2023/09/27 14:57:05;;;;;;;3.63;1.30;;;25.80;99.90;;;;;;5009979;28;20636;-74
2023/09/27 14:59:33;;;;;;;1.60;1.10;;;25.70;99.90;;;;;;5010049;28;20644;-74
2023/09/27 15:02:00;;;;;;;3.22;1.30;;;25.50;99.90;;;;;;5010257;28;20260;-74
2023/09/27 15:04:27;;;;;;;1.48;1.13;;;25.60;99.90;;;;;;5013419;28;20320;-74
2023/09/27 15:06:54;;;;;;;2.65;1.50;;;25.60;99.90;;;;;;5013460;28;20245;-74
2023/09/27 15:09:21;;;;;;;1.70;1.30;;;25.70;99.90;;;;;;5013388;28;20241;-74
2023/09/27 15:11:47;;;;;;;3.30;1.10;;;25.70;99.90;;;;;;5013346;28;20257;-74
2023/09/27 15:14:14;;;;;;;3.78;1.27;;;25.80;99.90;;;;;;5012770;28;20247;-74
2023/09/27 15:16:43;;;;;;;1.35;1.10;;;25.50;99.90;;;;;;5013140;28;20227;-74
2023/09/27 15:19:10;;;;;;;2.97;1.52;;;25.50;99.90;;;;;;5012764;28;20305;-74
2023/09/27 15:21:37;;;;;;;2.92;1.50;;;25.20;99.90;;;;;;5012700;28;20296;-74
2023/09/27 15:24:04;;;;;;;1.60;1.13;;;25.30;99.90;;;;;;5013043;28;20225;-74
2023/09/27 15:26:32;;;;;;;1.95;1.15;;;25.40;99.90;;;;;;5013019;28;20237;-74
2023/09/27 15:28:59;;;;;;;1.85;1.23;;;25.50;99.90;;;;;;5013037;28;20209;-74
2023/09/27 15:31:28;;;;;;;3.13;1.50;;;25.40;99.90;;;;;;5012737;28;20296;-74
2023/09/27 15:33:56;;;;;;;3.40;1.63;;;25.50;99.90;;;;;;5012502;28;20611;-74
2023/09/27 15:36:23;;;;;;;2.13;1.40;;;25.60;99.90;;;;;;5012942;28;20738;-74
2023/09/27 15:38:50;;;;;;;1.75;1.02;;;25.70;99.90;;;;;;5020902;28;20233;-74
2023/09/27 15:41:17;;;;;;;1.75;1.20;;;25.50;99.90;;;;;;5020213;28;20210;-74
2023/09/27 15:43:45;;;;;;;1.90;1.00;;;25.30;99.90;;;;;;5020587;28;20280;-75
2023/09/27 15:46:14;;;;;;;2.03;1.20;;;25.10;99.90;;;;;;5018056;28;20209;-74
2023/09/27 15:48:43;;;;;;;2.60;1.42;;;25.10;99.90;;;;;;5013574;28;20213;-74
2023/09/27 15:51:12;;;;;;;2.70;1.10;;;24.80;99.90;;;;;;5012825;28;20210;-74
2023/09/27 15:53:40;;;;;;;1.50;1.05;;;24.70;99.90;;;;;;5012334;28;20327;-75
2023/09/27 15:56:10;;;;;;;2.97;1.30;;;24.80;99.90;;;;;;5012850;28;20234;-74
2023/09/27 15:58:37;;;;;;;1.65;1.10;;;24.70;99.90;;;;;;5012566;28;20206;-74
2023/09/27 16:01:06;;;;;;;2.75;1.10;;;24.70;99.90;;;;;;5012202;28;20256;-74
2023/09/27 16:03:34;;;;;;;1.80;1.27;;;24.70;99.90;;;;;;5012392;28;20325;-74
2023/09/27 16:06:03;;;;;;;2.00;1.30;;;24.70;99.90;;;;;;5012572;28;20206;-74
2023/09/27 16:08:31;;;;;;;1.77;1.27;;;24.60;99.90;;;;;;5012437;28;20296;-74
2023/09/27 16:10:59;;;;;;;4.35;1.20;;;24.70;99.90;;;;;;5012560;28;20248;-75
2023/09/27 16:13:26;;;;;;;2.22;1.27;;;24.40;99.90;;;;;;5012043;28;20233;-74
2023/09/27 16:15:53;;;;;;;2.60;1.60;;;24.00;99.90;;;;;;5012736;28;20218;-74
2023/09/27 16:18:21;;;;;;;2.80;1.60;;;23.70;99.90;;;;;;5012761;28;20283;-74
2023/09/27 16:20:48;;;;;;;2.90;1.50;;;23.50;99.90;;;;;;5012631;28;20256;-74
2023/09/27 16:23:16;;;;;;;2.53;1.55;;;23.50;99.90;;;;;;5012283;28;20292;-74
2023/09/27 16:25:46;;;;;;;3.03;1.50;;;23.60;99.90;;;;;;5012187;28;20210;-74
2023/09/27 16:28:13;;;;;;;2.85;1.60;;;23.60;99.90;;;;;;5012361;28;20676;-74
2023/09/27 16:30:40;;;;;;;2.85;1.58;;;23.60;99.90;;;;;;5012345;28;20210;-74
2023/09/27 16:33:09;;;;;;;2.47;1.30;;;23.30;99.90;;;;;;5012066;28;20350;-74
2023/09/27 16:35:36;;;;;;;2.88;1.40;;;23.30;99.90;;;;;;5012312;28;20206;-72
2023/09/27 16:38:04;;;;;;;1.92;1.10;;;23.20;99.90;;;;;;5012401;28;20236;-73
2023/09/27 16:40:30;;;;;;;1.63;1.20;;;22.90;99.90;;;;;;5012188;28;20301;-74
2023/09/27 16:42:59;;;;;;;2.28;1.10;;;22.80;99.90;;;;;;5011605;28;20312;-73
2023/09/27 16:45:26;;;;;;;2.33;1.23;;;22.80;99.90;;;;;;5011776;28;20570;-73
2023/09/27 16:47:53;;;;;;;3.05;1.30;;;22.80;99.90;;;;;;5011552;28;20256;-73
2023/09/27 16:50:21;;;;;;;2.85;1.35;;;22.70;99.90;;;;;;5011777;28;20237;-73
2023/09/27 16:52:48;;;;;;;2.47;1.55;;;22.60;99.90;;;;;;5011933;28;20221;-73
2023/09/27 16:55:15;;;;;;;3.35;1.50;;;22.50;99.90;;;;;;5011655;28;20209;-73
2023/09/27 16:57:42;;;;;;;3.63;1.30;;;22.50;99.90;;;;;;5012112;28;20300;-73
2023/09/27 17:00:11;;;;;;;4.43;1.75;;;22.40;99.90;;;;;;5012197;28;20292;-73
2023/09/27 17:02:38;;;;;;;1.85;1.25;;;22.40;99.90;;;;;;5011355;28;20268;-73
2023/09/27 17:05:07;;;;;;;2.53;1.38;;;22.40;99.90;;;;;;5011582;28;20321;-73
2023/09/27 17:07:34;;;;;;;2.10;1.25;;;22.20;99.90;;;;;;5011487;28;20259;-73
2023/09/27 17:10:01;;;;;;;6.55;1.27;;;22.10;99.90;;;;;;5011684;28;20297;-73
2023/09/27 17:12:28;;;;;;;2.40;1.33;;;22.00;99.90;;;;;;5011547;28;20233;-73
2023/09/27 17:14:55;;;;;;;2.35;1.30;;;21.90;99.90;;;;;;5011537;28;20289;-73
2023/09/27 17:17:23;;;;;;;2.50;1.40;;;21.80;99.90;;;;;;5011172;28;20748;-73
2023/09/27 17:19:50;;;;;;;2.53;1.00;;;21.80;99.90;;;;;;5011314;28;20245;-73
2023/09/27 17:22:17;;;;;;;1.88;1.15;;;21.80;99.90;;;;;;5011165;28;20749;-74
2023/09/27 17:24:45;;;;;;;1.83;1.00;;;21.60;99.90;;;;;;5010583;28;20733;-72
2023/09/27 17:27:12;;;;;;;2.28;1.40;;;21.70;99.90;;;;;;5011625;28;20259;-73
2023/09/27 17:29:40;;;;;;;3.13;1.15;;;21.70;99.90;;;;;;5011484;28;20202;-73
2023/09/27 17:32:07;;;;;;;2.50;1.08;;;21.70;99.90;;;;;;5011290;28;20228;-72
2023/09/27 17:34:35;;;;;;;2.92;1.10;;;21.70;99.90;;;;;;5011671;28;20217;-74
2023/09/27 17:37:02;;;;;;;2.17;1.23;;;21.70;99.90;;;;;;5011324;28;20289;-74
2023/09/27 17:39:29;;;;;;;2.90;1.33;;;21.70;99.90;;;;;;5011489;28;20245;-73
2023/09/27 17:41:56;;;;;;;2.50;1.33;;;21.70;99.90;;;;;;5011278;28;20261;-73
2023/09/27 17:44:24;;;;;;;1.70;1.15;;;21.70;99.90;;;;;;5011502;28;20273;-73
2023/09/27 17:46:51;;;;;;;3.45;1.52;;;21.70;99.90;;;;;;5011429;28;20612;-74
2023/09/27 17:49:17;;;;;;;3.47;1.30;;;21.70;99.90;;;;;;5010965;28;20288;-72
2023/09/27 17:51:47;;;;;;;1.75;1.10;;;21.50;99.90;;;;;;5010716;28;20230;-73
2023/09/27 17:54:14;;;;;;;2.92;1.20;;;21.50;99.90;;;;;;5010576;28;20255;-73
2023/09/27 17:56:41;;;;;;;4.57;2.40;;;21.40;99.90;;;;;;5010513;28;20665;-73
2023/09/27 17:59:08;;;;;;;2.72;1.58;;;21.30;99.90;;;;;;5010890;28;20237;-73
2023/09/27 18:01:35;;;;;;;2.25;1.30;;;21.40;99.90;;;;;;5010614;28;20444;-73
2023/09/27 18:04:02;;;;;;;2.95;1.20;;;21.50;99.90;;;;;;5010758;28;20279;-73
2023/09/27 18:06:29;;;;;;;2.13;1.20;;;21.40;99.90;;;;;;5010967;28;20237;-73
2023/09/27 18:08:57;;;;;;;8.52;2.10;;;21.40;99.90;;;;;;5010692;28;20298;-74
2023/09/27 18:11:24;;;;;;;1.33;1.08;;;21.40;99.90;;;;;;5010745;28;20237;-73
2023/09/27 18:13:51;;;;;;;2.63;1.42;;;21.40;99.90;;;;;;5010714;28;20240;-73
2023/09/27 18:16:19;;;;;;;2.47;1.10;;;21.40;99.90;;;;;;5010406;28;20202;-74
2023/09/27 18:18:47;;;;;;;2.40;1.30;;;21.40;99.90;;;;;;5010603;28;20658;-73
2023/09/27 18:21:14;;;;;;;2.30;1.33;;;21.20;99.90;;;;;;5010406;28;20229;-74
2023/09/27 18:23:42;;;;;;;1.80;1.10;;;21.20;99.90;;;;;;5010315;28;20693;-74
2023/09/27 18:26:11;;;;;;;3.72;1.50;;;21.20;99.90;;;;;;5010596;28;20237;-74
2023/09/27 18:28:38;;;;;;;2.00;1.23;;;21.20;99.90;;;;;;5010527;28;20260;-75
2023/09/27 18:31:05;;;;;;;3.08;1.52;;;21.00;99.90;;;;;;5010242;28;20296;-75
2023/09/27 18:33:33;;;;;;;2.28;1.30;;;20.90;99.90;;;;;;5010331;28;20228;-73
2023/09/27 18:36:01;;;;;;;2.47;1.20;;;20.70;99.90;;;;;;5010214;28;20205;-73
2023/09/27 18:38:28;;;;;;;3.15;1.20;;;20.70;99.90;;;;;;5010181;28;20611;-73
2023/09/27 18:40:56;;;;;;;3.10;1.20;;;20.70;99.90;;;;;;5010413;28;20632;-73
2023/09/27 18:43:24;;;;;;;3.10;1.40;;;20.70;99.90;;;;;;5010761;28;20365;-73
2023/09/27 18:45:51;;;;;;;3.28;1.15;;;20.70;99.90;;;;;;5010262;28;20252;-73
2023/09/27 18:48:19;;;;;;;1.95;1.10;;;20.80;99.90;;;;;;5010265;28;20266;-73
2023/09/27 18:50:46;;;;;;;2.97;1.58;;;20.80;99.90;;;;;;5010176;28;20209;-73
2023/09/27 18:53:13;;;;;;;1.88;1.30;;;20.90;99.90;;;;;;5010122;28;20221;-72
2023/09/27 18:55:40;;;;;;;3.65;1.08;;;20.70;99.90;;;;;;5010217;28;20237;-73
2023/09/27 18:58:08;;;;;;;2.20;1.13;;;20.70;99.90;;;;;;5010089;28;20296;-74
2023/09/27 19:00:37;;;;;;;2.58;1.33;;;20.80;99.90;;;;;;5010122;28;20221;-73
2023/09/27 19:03:04;;;;;;;1.63;1.15;;;20.70;99.90;;;;;;5012059;28;20276;-74
2023/09/27 19:05:31;;;;;;;2.20;1.25;;;20.60;99.90;;;;;;5009297;28;20328;-73
2023/09/27 19:07:58;;;;;;;5.35;1.20;;;20.70;99.90;;;;;;5019938;28;20232;-73
2023/09/27 19:10:25;;;;;;;4.60;1.80;;;20.70;99.90;;;;;;5010886;28;20263;-74
2023/09/27 19:12:52;;;;;;;2.90;1.67;;;20.70;99.90;;;;;;5012087;28;20226;-73
2023/09/27 19:15:19;;;;;;;3.30;1.50;;;20.70;99.90;;;;;;5017923;28;20236;-74
2023/09/27 19:17:47;;;;;;;5.15;2.15;;;20.70;99.90;;;;;;5018683;28;20237;-73
2023/09/27 19:20:15;;;;;;;2.80;1.42;;;20.70;99.90;;;;;;5021927;28;20244;-73
2023/09/27 19:22:42;;;;;;;3.28;1.20;;;20.70;99.90;;;;;;5015525;28;20696;-74
2023/09/27 19:25:09;;;;;;;2.08;1.27;;;20.70;99.90;;;;;;5020934;28;20324;-74
2023/09/27 19:27:36;;;;;;;2.78;1.13;;;20.70;99.90;;;;;;5018876;28;20533;-74
2023/09/27 19:30:03;;;;;;;2.28;1.35;;;20.60;99.90;;;;;;5015038;28;20244;-74
2023/09/27 19:32:29;;;;;;;2.15;1.33;;;20.60;99.90;;;;;;5027669;28;20273;-74
2023/09/27 19:34:58;;;;;;;1.65;1.10;;;20.50;99.90;;;;;;5028340;28;20248;-74
2023/09/27 19:37:25;;;;;;;2.30;1.35;;;20.50;99.90;;;;;;5028173;28;20232;-74
2023/09/27 19:39:53;;;;;;;2.05;1.08;;;20.60;99.90;;;;;;5015936;28;20232;-74
2023/09/27 19:42:20;;;;;;;2.13;1.20;;;20.50;99.90;;;;;;5028481;28;20294;-74
2023/09/27 19:44:47;;;;;;;2.60;1.20;;;20.60;99.90;;;;;;5025448;28;20232;-74